createdAt,value
2023-02-17T00:01:28.286Z,98887.69
2023-02-17T00:03:56.533Z,98885.97
2023-02-17T00:06:26.452Z,98876.25
2023-02-17T00:08:56.371Z,98880.75
2023-02-17T00:11:24.924Z,98879.53
2023-02-17T00:13:56.133Z,98877.84
2023-02-17T00:16:31.054Z,98874.25
2023-02-17T00:19:01.561Z,98874.97
2023-02-17T00:21:31.778Z,98873.34
2023-02-17T00:24:01.600Z,98869.59
2023-02-17T00:26:29.739Z,98866.69
2023-02-17T00:28:59.775Z,98867.38
2023-02-17T00:31:27.930Z,98868.78
2023-02-17T00:33:57.321Z,98872.28
2023-02-17T00:36:26.901Z,98862.81
2023-02-17T00:38:56.729Z,98867.50
2023-02-17T00:41:27.792Z,98870.41
2023-02-17T00:43:56.218Z,98865.63
2023-02-17T00:46:24.869Z,98874.75
2023-02-17T00:48:53.745Z,98867.59
2023-02-17T00:51:22.043Z,98863.16
2023-02-17T00:53:50.748Z,98867.59
2023-02-17T00:56:19.037Z,98867.13
2023-02-17T00:58:48.313Z,98867.00
2023-02-17T01:01:16.415Z,98865.34
2023-02-17T01:03:44.648Z,98870.50
2023-02-17T01:06:29.866Z,98866.63
2023-02-17T01:08:57.852Z,98864.91
2023-02-17T01:11:28.471Z,98864.75
2023-02-17T01:13:58.489Z,98864.75
2023-02-17T01:16:28.744Z,98864.91
2023-02-17T01:18:57.352Z,98857.28
2023-02-17T01:21:28.024Z,98865.25
2023-02-17T01:23:58.140Z,98860.09
2023-02-17T01:26:28.708Z,98856.00
2023-02-17T01:28:58.171Z,98852.03
2023-02-17T01:31:28.398Z,98844.19
2023-02-17T01:33:58.531Z,98848.88
2023-02-17T01:36:27.213Z,98842.19
2023-02-17T01:38:55.179Z,98840.81
2023-02-17T01:41:30.144Z,98839.06
2023-02-17T01:44:10.103Z,98842.56
2023-02-17T01:46:39.664Z,98840.59
2023-02-17T01:49:16.529Z,98843.97
2023-02-17T01:51:48.467Z,98835.44
2023-02-17T01:54:20.150Z,98833.22
2023-02-17T01:56:51.555Z,98830.06
2023-02-17T01:59:22.907Z,98825.28
2023-02-17T02:01:56.142Z,98814.00
2023-02-17T02:04:29.884Z,98819.63
2023-02-17T02:06:58.446Z,98817.28
2023-02-17T02:09:33.239Z,98808.16
2023-02-17T02:12:01.342Z,98817.66
2023-02-17T02:14:30.891Z,98810.16
2023-02-17T02:17:10.415Z,98816.59
2023-02-17T02:20:20.584Z,98807.22
2023-02-17T02:23:21.412Z,98812.72
2023-02-17T02:26:20.161Z,98807.34
2023-02-17T02:29:11.255Z,98805.84
2023-02-17T02:31:48.702Z,98804.28
2023-02-17T02:34:22.733Z,98806.59
2023-02-17T02:36:57.968Z,98798.31
2023-02-17T02:39:31.312Z,98806.16
2023-02-17T02:42:03.480Z,98807.94
2023-02-17T02:44:31.576Z,98803.09
2023-02-17T02:47:00.898Z,98802.66
2023-02-17T02:49:32.821Z,98797.25
2023-02-17T02:52:07.219Z,98791.06
2023-02-17T02:54:47.107Z,98791.41
2023-02-17T02:57:27.439Z,98793.75
2023-02-17T03:00:10.770Z,98795.97
2023-02-17T03:02:46.040Z,98786.13
2023-02-17T03:05:21.498Z,98781.81
2023-02-17T03:07:55.798Z,98781.34
2023-02-17T03:10:23.756Z,98770.34
2023-02-17T03:12:51.998Z,98771.75
2023-02-17T03:15:26.709Z,98765.78
2023-02-17T03:17:58.436Z,98761.56
2023-02-17T03:20:31.057Z,98757.00
2023-02-17T03:22:59.206Z,98754.66
2023-02-17T03:25:27.244Z,98760.16
2023-02-17T03:27:55.229Z,98758.19
2023-02-17T03:30:23.184Z,98757.59
2023-02-17T03:32:51.252Z,98755.63
2023-02-17T03:35:19.381Z,98764.59
2023-02-17T03:37:49.000Z,98760.63
2023-02-17T03:40:17.291Z,98761.47
2023-02-17T03:42:45.217Z,98766.38
2023-02-17T03:45:13.097Z,98768.13
2023-02-17T03:47:41.440Z,98772.44
2023-02-17T03:50:10.136Z,98772.44
2023-02-17T03:52:38.487Z,98774.47
2023-02-17T03:55:10.767Z,98775.72
2023-02-17T03:57:38.804Z,98777.84
2023-02-17T04:00:09.445Z,98772.81
2023-02-17T04:02:37.759Z,98771.41
2023-02-17T04:05:06.266Z,98765.78
2023-02-17T04:07:34.719Z,98768.72
2023-02-17T04:10:05.170Z,98775.16
2023-02-17T04:12:35.613Z,98774.22
2023-02-17T04:15:03.732Z,98783.44
2023-02-17T04:17:32.020Z,98773.88
2023-02-17T04:20:00.253Z,98788.38
2023-02-17T04:22:28.220Z,98791.19
2023-02-17T04:24:56.112Z,98791.28
2023-02-17T04:27:24.347Z,98784.03
2023-02-17T04:29:54.621Z,98792.59
2023-02-17T04:32:22.678Z,98784.63
2023-02-17T04:34:50.735Z,98784.25
2023-02-17T04:37:19.043Z,98785.09
2023-02-17T04:39:47.265Z,98785.38
2023-02-17T04:42:15.230Z,98777.69
2023-02-17T04:44:43.447Z,98778.13
2023-02-17T04:47:13.625Z,98782.75
2023-02-17T04:49:41.633Z,98774.03
2023-02-17T04:52:10.036Z,98777.25
2023-02-17T04:54:38.308Z,98779.81
2023-02-17T04:57:06.199Z,98780.00
2023-02-17T04:59:34.049Z,98775.44
2023-02-17T05:02:02.056Z,98767.38
2023-02-17T05:04:31.969Z,98770.06
2023-02-17T05:07:02.237Z,98780.22
2023-02-17T05:09:30.389Z,98773.78
2023-02-17T05:11:59.222Z,98772.59
2023-02-17T05:14:28.089Z,98774.84
2023-02-17T05:16:56.068Z,98776.94
2023-02-17T05:19:24.161Z,98766.53
2023-02-17T05:21:53.858Z,98768.00
2023-02-17T05:24:21.811Z,98772.97
2023-02-17T05:26:49.886Z,98771.56
2023-02-17T05:29:18.131Z,98778.69
2023-02-17T05:31:46.243Z,98781.59
2023-02-17T05:34:14.430Z,98780.53
2023-02-17T05:36:42.796Z,98789.28
2023-02-17T05:39:12.804Z,98786.00
2023-02-17T05:41:40.967Z,98781.91
2023-02-17T05:44:09.001Z,98785.88
2023-02-17T05:46:37.008Z,98789.59
2023-02-17T05:49:04.973Z,98787.16
2023-02-17T05:51:32.984Z,98785.88
2023-02-17T05:54:03.378Z,98797.53
2023-02-17T05:56:32.965Z,98790.75
2023-02-17T05:59:01.260Z,98788.34
2023-02-17T06:01:29.708Z,98798.13
2023-02-17T06:03:57.627Z,98798.59
2023-02-17T06:06:25.551Z,98803.97
2023-02-17T06:08:53.583Z,98803.97
2023-02-17T06:11:21.737Z,98799.78
2023-02-17T06:13:51.171Z,98803.28
2023-02-17T06:16:19.383Z,98807.38
2023-02-17T06:18:47.546Z,98810.53
2023-02-17T06:21:15.552Z,98803.97
2023-02-17T06:23:43.593Z,98809.47
2023-02-17T06:26:11.898Z,98818.59
2023-02-17T06:28:39.856Z,98809.47
2023-02-17T06:31:09.724Z,98819.41
2023-02-17T06:33:37.975Z,98816.34
2023-02-17T06:36:07.083Z,98821.88
2023-02-17T06:38:35.677Z,98822.03
2023-02-17T06:41:03.767Z,98813.72
2023-02-17T06:43:31.737Z,98809.41
2023-02-17T06:46:00.008Z,98814.19
2023-02-17T06:48:29.509Z,98816.03
2023-02-17T06:50:57.347Z,98828.38
2023-02-17T06:53:25.534Z,98827.19
2023-02-17T06:55:53.797Z,98823.72
2023-02-17T06:58:21.736Z,98824.84
2023-02-17T07:00:50.054Z,98816.84
2023-02-17T07:03:18.106Z,98824.09
2023-02-17T07:05:47.469Z,98820.34
2023-02-17T07:08:16.190Z,98825.53
2023-02-17T07:10:44.593Z,98818.66
2023-02-17T07:13:12.537Z,98825.06
2023-02-17T07:15:40.529Z,98823.56
2023-02-17T07:18:08.526Z,98831.91
2023-02-17T07:20:38.232Z,98831.91
2023-02-17T07:23:08.785Z,98829.31
2023-02-17T07:25:36.928Z,98835.53
2023-02-17T07:28:04.930Z,98830.38
2023-02-17T07:30:33.390Z,98840.31
2023-02-17T07:33:01.285Z,98835.44
2023-02-17T07:35:29.227Z,98839.16
2023-02-17T07:37:58.543Z,98832.50
2023-02-17T07:40:28.882Z,98838.47
2023-02-17T07:42:58.673Z,98823.84
2023-02-17T07:45:26.576Z,98831.44
2023-02-17T07:47:54.775Z,98829.56
2023-02-17T07:50:23.465Z,98845.63
2023-02-17T07:52:52.393Z,98839.91
2023-02-17T07:55:20.486Z,98839.09
2023-02-17T07:57:49.917Z,98844.84
2023-02-17T08:00:20.131Z,98844.69
2023-02-17T08:02:48.121Z,98842.38
2023-02-17T08:05:16.212Z,98850.00
2023-02-17T08:07:44.158Z,98847.75
2023-02-17T08:10:31.387Z,98845.56
2023-02-17T08:13:19.382Z,98841.81
2023-02-17T08:15:47.805Z,98842.19
2023-02-17T08:18:16.003Z,98844.41
2023-02-17T08:20:44.567Z,98842.44
2023-02-17T08:23:13.147Z,98845.25
2023-02-17T08:25:41.471Z,98846.19
2023-02-17T08:28:13.559Z,98853.59
2023-02-17T08:30:42.261Z,98850.78
2023-02-17T08:33:10.815Z,98853.72
2023-02-17T08:35:39.304Z,98849.50
2023-02-17T08:38:07.592Z,98851.50
2023-02-17T08:40:36.038Z,98851.63
2023-02-17T08:43:04.439Z,98851.84
2023-02-17T08:45:34.523Z,98846.22
2023-02-17T08:48:02.532Z,98855.94
2023-02-17T08:50:31.633Z,98855.47
2023-02-17T08:52:59.856Z,98856.41
2023-02-17T08:55:30.455Z,98848.34
2023-02-17T08:58:01.930Z,98856.97
2023-02-17T09:00:30.419Z,98854.88
2023-02-17T09:03:00.029Z,98842.47
2023-02-17T09:05:28.078Z,98849.16
2023-02-17T09:07:56.297Z,98850.19
2023-02-17T09:10:24.673Z,98854.19
2023-02-17T09:12:53.183Z,98864.50
2023-02-17T09:15:21.652Z,98855.34
2023-02-17T09:17:50.162Z,98847.63
2023-02-17T09:20:25.089Z,98854.75
2023-02-17T09:22:54.130Z,98865.66
2023-02-17T09:25:22.496Z,98867.53
2023-02-17T09:27:50.850Z,98865.53
2023-02-17T09:30:20.392Z,98863.91
2023-02-17T09:32:48.571Z,98870.69
2023-02-17T09:35:19.644Z,98868.25
2023-02-17T09:37:48.535Z,98864.84
2023-02-17T09:40:20.179Z,98874.59
2023-02-17T09:42:49.777Z,98884.78
2023-02-17T09:45:23.610Z,98876.69
2023-02-17T09:47:54.847Z,98866.59
2023-02-17T09:50:29.949Z,98879.63
2023-02-17T09:53:03.913Z,98876.56
2023-02-17T09:55:39.240Z,98872.56
2023-02-17T09:58:13.395Z,98878.00
2023-02-17T10:00:46.637Z,98871.06
2023-02-17T10:03:19.311Z,98868.69
2023-02-17T10:05:54.559Z,98876.69
2023-02-17T10:08:28.145Z,98876.19
2023-02-17T10:11:01.853Z,98860.31
2023-02-17T10:13:34.778Z,98863.81
2023-02-17T10:16:07.096Z,98853.34
2023-02-17T10:18:40.963Z,98859.69
2023-02-17T10:21:15.633Z,98869.28
2023-02-17T10:23:46.002Z,98875.59
2023-02-17T10:26:23.925Z,98869.81
2023-02-17T10:28:54.020Z,98875.47
2023-02-17T10:31:38.028Z,98869.81
2023-02-17T10:34:15.393Z,98875.41
2023-02-17T10:36:54.611Z,98863.22
2023-02-17T10:39:36.273Z,98864.44
2023-02-17T10:42:05.304Z,98862.72
2023-02-17T10:44:37.900Z,98865.69
2023-02-17T10:47:06.881Z,98869.88
2023-02-17T10:49:38.948Z,98870.06
2023-02-17T10:52:16.071Z,98865.97
2023-02-17T10:54:49.866Z,98862.03
2023-02-17T10:57:20.497Z,98866.03
2023-02-17T10:59:50.478Z,98858.09
2023-02-17T11:02:21.827Z,98841.38
2023-02-17T11:04:51.439Z,98843.34
2023-02-17T11:07:33.974Z,98834.19
2023-02-17T11:10:03.925Z,98832.25
2023-02-17T11:12:40.160Z,98833.16
2023-02-17T11:15:18.283Z,98836.91
2023-02-17T11:17:47.397Z,98831.50
2023-02-17T11:20:42.243Z,98827.25
2023-02-17T11:23:25.702Z,98828.91
2023-02-17T11:25:59.928Z,98822.56
2023-02-17T11:28:28.586Z,98831.09
2023-02-17T11:30:59.750Z,98832.38
2023-02-17T11:33:33.167Z,98829.03
2023-02-17T11:36:01.560Z,98838.84
2023-02-17T11:38:42.314Z,98829.59
2023-02-17T11:41:11.248Z,98831.13
2023-02-17T11:43:40.877Z,98832.09
2023-02-17T11:46:25.509Z,98830.31
2023-02-17T11:49:25.234Z,98828.59
2023-02-17T11:52:03.120Z,98836.84
2023-02-17T11:54:53.068Z,98837.22
2023-02-17T11:57:35.118Z,98835.72
2023-02-17T12:00:15.110Z,98831.53
2023-02-17T12:03:05.113Z,98832.50
2023-02-17T12:05:44.662Z,98835.44
2023-02-17T12:08:21.631Z,98837.78
2023-02-17T12:11:05.321Z,98834.75
2023-02-17T12:13:44.271Z,98840.63
2023-02-17T12:16:25.380Z,98844.38
2023-02-17T12:19:03.848Z,98849.78
2023-02-17T12:21:51.639Z,98846.00
2023-02-17T12:24:38.325Z,98844.38
2023-02-17T12:27:24.630Z,98842.69
2023-02-17T12:30:11.257Z,98838.25
2023-02-17T12:32:54.723Z,98840.31
2023-02-17T12:35:26.577Z,98843.38
2023-02-17T12:37:57.929Z,98834.72
2023-02-17T12:40:35.494Z,98833.53
2023-02-17T12:43:16.199Z,98818.19
2023-02-17T12:45:49.329Z,98817.59
2023-02-17T12:48:24.290Z,98820.41
2023-02-17T12:50:57.429Z,98814.78
2023-02-17T12:53:35.806Z,98811.84
2023-02-17T12:56:05.853Z,98809.84
2023-02-17T12:58:39.585Z,98803.38
2023-02-17T13:01:14.830Z,98793.22
2023-02-17T13:03:43.088Z,98797.31
2023-02-17T13:06:23.655Z,98795.53
2023-02-17T13:08:56.204Z,98802.28
2023-02-17T13:11:29.604Z,98798.88
2023-02-17T13:14:10.763Z,98801.56
2023-02-17T13:16:44.005Z,98805.69
2023-02-17T13:19:12.265Z,98800.03
2023-02-17T13:21:53.693Z,98807.75
2023-02-17T13:24:34.490Z,98803.84
2023-02-17T13:27:13.012Z,98801.75
2023-02-17T13:29:42.327Z,98795.88
2023-02-17T13:32:14.087Z,98792.09
2023-02-17T13:34:44.360Z,98790.31
2023-02-17T13:37:26.599Z,98789.34
2023-02-17T13:39:54.979Z,98798.13
2023-02-17T13:42:38.866Z,98790.84
2023-02-17T13:45:19.298Z,98782.59
2023-02-17T13:47:49.058Z,98789.47
2023-02-17T13:50:35.216Z,98793.56
2023-02-17T13:53:07.947Z,98789.81
2023-02-17T13:55:36.535Z,98787.91
2023-02-17T13:58:04.522Z,98785.78
2023-02-17T14:00:34.113Z,98773.41
2023-02-17T14:03:14.490Z,98767.28
2023-02-17T14:05:45.942Z,98768.91
2023-02-17T14:08:18.450Z,98769.97
2023-02-17T14:10:47.744Z,98772.19
2023-02-17T14:13:16.046Z,98763.84
2023-02-17T14:15:54.015Z,98769.31
2023-02-17T14:18:43.177Z,98764.50
2023-02-17T14:21:15.851Z,98755.25
2023-02-17T14:23:46.705Z,98758.53
2023-02-17T14:26:27.831Z,98761.97
2023-02-17T14:28:57.578Z,98759.66
2023-02-17T14:31:28.232Z,98759.09
2023-02-17T14:33:59.674Z,98764.34
2023-02-17T14:36:43.477Z,98747.78
2023-02-17T14:39:16.100Z,98753.09
2023-02-17T14:41:45.149Z,98751.56
2023-02-17T14:44:13.181Z,98744.66
2023-02-17T14:46:42.714Z,98745.47
2023-02-17T14:49:10.768Z,98745.81
2023-02-17T14:51:39.173Z,98738.13
2023-02-17T14:54:15.495Z,98743.41
2023-02-17T14:56:47.918Z,98744.22
2023-02-17T14:59:16.027Z,98740.56
2023-02-17T15:01:45.405Z,98736.09
2023-02-17T15:04:14.036Z,98743.38
2023-02-17T15:06:47.205Z,98732.34
2023-02-17T15:09:18.551Z,98735.25
2023-02-17T15:12:00.700Z,98733.56
2023-02-17T15:14:29.282Z,98736.47
2023-02-17T15:16:58.767Z,98734.84
2023-02-17T15:19:26.822Z,98734.84
2023-02-17T15:21:54.791Z,98736.16
2023-02-17T15:24:29.851Z,98739.69
2023-02-17T15:26:58.554Z,98726.16
2023-02-17T15:29:28.459Z,98725.84
2023-02-17T15:32:00.332Z,98726.91
2023-02-17T15:34:32.239Z,98732.25
2023-02-17T15:37:00.354Z,98738.25
2023-02-17T15:39:28.635Z,98739.25
2023-02-17T15:42:01.435Z,98736.84
2023-02-17T15:44:36.528Z,98739.81
2023-02-17T15:47:06.063Z,98733.22
2023-02-17T15:49:34.166Z,98732.09
2023-02-17T15:52:02.418Z,98734.72
2023-02-17T15:54:30.749Z,98736.22
2023-02-17T15:56:59.298Z,98730.75
2023-02-17T15:59:28.371Z,98729.97
2023-02-17T16:01:56.900Z,98736.69
2023-02-17T16:04:26.640Z,98744.72
2023-02-17T16:06:54.622Z,98744.16
2023-02-17T16:09:25.641Z,98751.63
2023-02-17T16:12:01.599Z,98767.75
2023-02-17T16:14:40.693Z,98763.91
2023-02-17T16:17:23.366Z,98764.66
2023-02-17T16:19:56.909Z,98757.59
2023-02-17T16:22:25.142Z,98755.06
2023-02-17T16:24:53.089Z,98753.34
2023-02-17T16:27:50.909Z,98754.34
2023-02-17T16:30:39.326Z,98761.31
2023-02-17T16:33:12.986Z,98758.03
2023-02-17T16:35:43.606Z,98769.81
2023-02-17T16:38:16.791Z,98756.88
2023-02-17T16:40:48.350Z,98752.53
2023-02-17T16:43:17.705Z,98763.19
2023-02-17T16:45:54.008Z,98773.09
2023-02-17T16:48:23.580Z,98767.34
2023-02-17T16:50:53.555Z,98769.97
2023-02-17T16:53:21.834Z,98777.50
2023-02-17T16:55:51.577Z,98793.97
2023-02-17T16:58:23.004Z,98788.00
2023-02-17T17:00:55.233Z,98786.38
2023-02-17T17:03:27.265Z,98789.31
2023-02-17T17:05:56.705Z,98786.88
2023-02-17T17:08:24.918Z,98788.75
2023-02-17T17:10:53.107Z,98794.19
2023-02-17T17:13:21.462Z,98791.50
2023-02-17T17:15:50.004Z,98785.47
2023-02-17T17:18:23.840Z,98786.88
2023-02-17T17:20:51.882Z,98794.53
2023-02-17T17:23:21.320Z,98790.28
2023-02-17T17:25:49.487Z,98778.56
2023-02-17T17:28:20.035Z,98781.47
2023-02-17T17:30:48.417Z,98775.25
2023-02-17T17:33:16.538Z,98771.97
2023-02-17T17:35:44.631Z,98774.91
2023-02-17T17:38:15.908Z,98773.13
2023-02-17T17:40:52.028Z,98776.88
2023-02-17T17:43:23.466Z,98774.91
2023-02-17T17:45:52.731Z,98780.97
2023-02-17T17:48:21.010Z,98780.31
2023-02-17T17:50:50.191Z,98776.53
2023-02-17T17:53:18.370Z,98777.69
2023-02-17T17:55:48.466Z,98778.44
2023-02-17T17:58:17.269Z,98784.06
2023-02-17T18:00:45.389Z,98776.53
2023-02-17T18:03:13.464Z,98786.19
2023-02-17T18:05:41.724Z,98787.34
2023-02-17T18:08:11.120Z,98793.47
2023-02-17T18:10:40.400Z,98803.31
2023-02-17T18:13:12.995Z,98803.13
2023-02-17T18:15:42.649Z,98814.44
2023-02-17T18:18:11.899Z,98818.38
2023-02-17T18:20:40.733Z,98824.66
2023-02-17T18:23:09.059Z,98826.47
2023-02-17T18:25:37.100Z,98830.13
2023-02-17T18:28:05.200Z,98828.19
2023-02-17T18:30:34.809Z,98823.84
2023-02-17T18:33:03.085Z,98833.94
2023-02-17T18:35:31.063Z,98833.41
2023-02-17T18:37:59.151Z,98840.69
2023-02-17T18:40:29.150Z,98846.44
2023-02-17T18:42:57.438Z,98851.09
2023-02-17T18:45:31.778Z,98857.56
2023-02-17T18:48:01.403Z,98873.97
2023-02-17T18:50:33.018Z,98866.69
2023-02-17T18:53:03.023Z,98874.78
2023-02-17T18:55:33.801Z,98883.63
2023-02-17T18:58:01.747Z,98888.34
2023-02-17T19:00:30.219Z,98897.28
2023-02-17T19:02:58.303Z,98900.69
2023-02-17T19:05:28.767Z,98911.25
2023-02-17T19:07:57.431Z,98916.16
2023-02-17T19:10:25.517Z,98915.69
2023-02-17T19:12:53.812Z,98919.78
2023-02-17T19:15:22.047Z,98935.75
2023-02-17T19:17:51.299Z,98939.75
2023-02-17T19:20:19.539Z,98939.88
2023-02-17T19:22:49.393Z,98945.06
2023-02-17T19:25:17.601Z,98946.81
2023-02-17T19:27:45.730Z,98958.34
2023-02-17T19:30:14.777Z,98962.81
2023-02-17T19:32:42.883Z,98964.25
2023-02-17T19:35:11.792Z,98961.91
2023-02-17T19:37:40.276Z,98970.13
2023-02-17T19:40:10.695Z,98973.78
2023-02-17T19:42:40.295Z,98984.56
2023-02-17T19:45:08.649Z,98985.28
2023-02-17T19:47:36.662Z,98972.72
2023-02-17T19:50:04.978Z,98985.03
2023-02-17T19:52:33.199Z,98971.91
2023-02-17T19:55:01.478Z,98988.22
2023-02-17T19:57:31.091Z,98987.50
2023-02-17T19:59:59.053Z,98983.75
2023-02-17T20:02:28.037Z,98987.03
2023-02-17T20:04:56.074Z,98983.16
2023-02-17T20:07:24.053Z,98980.94
2023-02-17T20:09:52.131Z,98982.47
2023-02-17T20:12:20.114Z,98972.03
2023-02-17T20:14:49.762Z,98975.19
2023-02-17T20:17:17.907Z,98971.56
2023-02-17T20:19:46.112Z,98969.78
2023-02-17T20:22:14.182Z,98965.09
2023-02-17T20:24:42.729Z,98962.75
2023-02-17T20:27:11.885Z,98963.22
2023-02-17T20:29:40.117Z,98956.53
2023-02-17T20:32:09.802Z,98966.28
2023-02-17T20:34:41.255Z,98958.19
2023-02-17T20:37:10.384Z,98957.00
2023-02-17T20:39:42.193Z,98947.97
2023-02-17T20:42:10.703Z,98960.41
2023-02-17T20:44:38.862Z,98953.25
2023-02-17T20:47:07.742Z,98956.75
2023-02-17T20:49:37.595Z,98966.84
2023-02-17T20:52:07.182Z,98956.28
2023-02-17T20:54:35.856Z,98951.13
2023-02-17T20:57:05.088Z,98944.69
2023-02-17T20:59:34.604Z,98936.34
2023-02-17T21:02:02.713Z,98953.72
2023-02-17T21:04:30.763Z,98947.59
2023-02-17T21:07:01.451Z,98944.69
2023-02-17T21:09:29.708Z,98941.03
2023-02-17T21:11:57.753Z,98945.25
2023-02-17T21:14:25.689Z,98937.41
2023-02-17T21:16:53.795Z,98950.31
2023-02-17T21:19:22.135Z,98951.38
2023-02-17T21:21:50.084Z,98958.28
2023-02-17T21:24:19.779Z,98958.16
2023-02-17T21:26:47.827Z,98946.31
2023-02-17T21:29:16.106Z,98952.78
2023-02-17T21:31:44.122Z,98947.97
2023-02-17T21:34:12.106Z,98949.13
2023-02-17T21:36:40.336Z,98946.78
2023-02-17T21:39:08.426Z,98945.97
2023-02-17T21:41:37.785Z,98940.81
2023-02-17T21:44:23.747Z,98944.56
2023-02-17T21:46:53.695Z,98944.31
2023-02-17T21:49:23.392Z,98951.59
2023-02-17T21:51:52.256Z,98939.75
2023-02-17T21:54:20.219Z,98955.59
2023-02-17T21:56:49.636Z,98948.66
2023-02-17T21:59:18.660Z,98936.81
2023-02-17T22:01:46.596Z,98946.56
2023-02-17T22:04:14.920Z,98931.06
2023-02-17T22:06:43.376Z,98935.41
2023-02-17T22:09:14.788Z,98936.94
2023-02-17T22:11:44.041Z,98947.00
2023-02-17T22:14:16.038Z,98949.38
2023-02-17T22:16:44.449Z,98945.38
2023-02-17T22:19:15.971Z,98951.34
2023-02-17T22:21:44.434Z,98946.78
2023-02-17T22:24:13.160Z,98957.22
2023-02-17T22:26:41.216Z,98950.88
2023-02-17T22:29:09.183Z,98954.28
2023-02-17T22:31:38.654Z,98960.75
2023-02-17T22:34:10.004Z,98960.41
2023-02-17T22:36:38.486Z,98962.63
2023-02-17T22:39:08.747Z,98959.34
2023-02-17T22:41:38.847Z,98962.97
2023-02-17T22:44:07.167Z,98966.63
2023-02-17T22:46:36.048Z,98960.63
2023-02-17T22:49:07.139Z,98948.31
2023-02-17T22:51:38.967Z,98954.41
2023-02-17T22:54:08.432Z,98955.34
2023-02-17T22:56:37.120Z,98955.72
2023-02-17T22:59:05.897Z,98952.19
2023-02-17T23:01:35.787Z,98942.69
2023-02-17T23:04:06.588Z,98947.50
2023-02-17T23:06:37.329Z,98948.91
2023-02-17T23:09:06.482Z,98946.56
2023-02-17T23:11:51.434Z,98944.19
2023-02-17T23:14:21.805Z,98948.88
2023-02-17T23:16:50.470Z,98945.81
2023-02-17T23:19:22.339Z,98938.31
2023-02-17T23:21:52.300Z,98935.88
2023-02-17T23:24:21.386Z,98942.31
2023-02-17T23:26:50.073Z,98937.06
2023-02-17T23:29:19.219Z,98936.47
2023-02-17T23:31:47.221Z,98929.44
2023-02-17T23:34:16.395Z,98936.72
2023-02-17T23:36:46.640Z,98941.63
2023-02-17T23:39:15.081Z,98931.06
2023-02-17T23:41:43.101Z,98924.97
2023-02-17T23:44:13.672Z,98927.44
2023-02-17T23:46:43.202Z,98918.38
2023-02-17T23:49:14.055Z,98931.19
2023-02-17T23:51:42.567Z,98929.66
2023-02-17T23:54:11.878Z,98935.53
2023-02-17T23:56:40.313Z,98931.75
2023-02-17T23:59:08.609Z,98929.06
